This is the latest recevied weather packets stored in our database for station/object DM3FAM-13. If no packets are shown the sender has not sent any weather packets the latest 1 day(s).
| Time | Temp. | Humidity | Pressure | Rain* | Wind** | Luminosity | Snow |
|---|---|---|---|---|---|---|---|
| 1778054430 | 13.89° C | 79% | 1006.6 hPa | 0 mm | - | 155 W/m² | - |
| 1778053831 | 13.89° C | 82% | 1006.7 hPa | 0 mm | - | 151 W/m² | - |
| 1778053230 | 13.33° C | 87% | 1006.6 hPa | 0 mm | - | 148 W/m² | - |
| 1778052630 | 12.78° C | 89% | 1006.7 hPa | 0 mm | - | 139 W/m² | - |
| 1778052030 | 12.22° C | 90% | 1006.7 hPa | 0 mm | - | 125 W/m² | - |
| 1778050231 | 11.11° C | 93% | 1006.6 hPa | 0 mm | - | 76 W/m² | - |
| 1778049030 | 10.56° C | 96% | 1006.7 hPa | 0 mm | - | 79 W/m² | - |
| 1778048430 | 10° C | 97% | 1006.7 hPa | 0 mm | - | 81 W/m² | - |
| 1778047231 | 9.44° C | 97% | 1006.8 hPa | 0 mm | - | 49 W/m² | - |
| 1778046031 | 9.44° C | 98% | 1007 hPa | 0 mm | - | 47 W/m² | - |
| 1778045431 | 9.44° C | 98% | 1006.8 hPa | 0 mm | - | 37 W/m² | - |
| 1778044830 | 8.89° C | 98% | 1006.9 hPa | 0 mm | - | 33 W/m² | - |
| 1778044230 | 8.89° C | 97% | 1007 hPa | 0 mm | - | 32 W/m² | - |
| 1778043031 | 8.89° C | 97% | 1007.1 hPa | 0 mm | - | 20 W/m² | - |
| 1778042431 | 8.89° C | 97% | 1007 hPa | 0 mm | - | 16 W/m² | - |
| 1778041831 | 8.89° C | 97% | 1007 hPa | 0 mm | - | 10 W/m² | - |
| 1778041230 | 8.89° C | 97% | 1007.1 hPa | 0 mm | - | 6 W/m² | - |
| 1778040631 | 9.44° C | 97% | 1007.3 hPa | 0 mm | - | 3 W/m² | - |
| 1778039430 | 9.44° C | 98% | 1007.3 hPa | 0 mm | - | 0 W/m² | - |
| 1778038830 | 9.44° C | 97% | 1007.3 hPa | 0 mm | - | 0 W/m² | - |
| 1778038230 | 9.44° C | 97% | 1007.4 hPa | 0 mm | - | 0 W/m² | - |
| 1778037630 | 10° C | 97% | 1007.4 hPa | 0 mm | - | 0 W/m² | - |
| 1778037030 | 10° C | 98% | 1007.6 hPa | 0 mm | - | 0 W/m² | - |
| 1778036431 | 10° C | 98% | 1007.7 hPa | 0 mm | - | 0 W/m² | - |
| 1778035831 | 10° C | 98% | 1007.8 hPa | 0 mm | - | 0 W/m² | - |
* Rain latest hour (hover to see other rain measurements)
** Current wind speed in m/s (hover to see current wind gust speed)